sensor_id;sensor_type;location;lat;lon;timestamp;P1;P2;P0
67892;PMS7003;54688;52.376;16.744;2024-01-15T00:01:12;25;22;
67892;PMS7003;54688;52.376;16.744;2024-01-15T00:04:36;22;21;
67892;PMS7003;54688;52.376;16.744;2024-01-15T00:07:39;28;23;
67892;PMS7003;54688;52.376;16.744;2024-01-15T00:10:41;30;24;
67892;PMS7003;54688;52.376;16.744;2024-01-15T00:13:43;28;25;
67892;PMS7003;54688;52.376;16.744;2024-01-15T00:16:45;18;17;
67892;PMS7003;54688;52.376;16.744;2024-01-15T00:19:48;29;24;
67892;PMS7003;54688;52.376;16.744;2024-01-15T00:22:50;27;25;
67892;PMS7003;54688;52.376;16.744;2024-01-15T00:25:53;27;22;
67892;PMS7003;54688;52.376;16.744;2024-01-15T00:28:55;20;17;
67892;PMS7003;54688;52.376;16.744;2024-01-15T00:31:58;20;20;
67892;PMS7003;54688;52.376;16.744;2024-01-15T00:35:01;27;22;
67892;PMS7003;54688;52.376;16.744;2024-01-15T00:38:03;28;21;
67892;PMS7003;54688;52.376;16.744;2024-01-15T00:41:06;34;29;
67892;PMS7003;54688;52.376;16.744;2024-01-15T00:44:08;29;23;
67892;PMS7003;54688;52.376;16.744;2024-01-15T00:47:10;22;22;
67892;PMS7003;54688;52.376;16.744;2024-01-15T00:50:12;26;23;
67892;PMS7003;54688;52.376;16.744;2024-01-15T00:53:14;30;27;
67892;PMS7003;54688;52.376;16.744;2024-01-15T00:56:17;29;26;
67892;PMS7003;54688;52.376;16.744;2024-01-15T00:59:19;27;26;
67892;PMS7003;54688;52.376;16.744;2024-01-15T01:02:22;32;30;
67892;PMS7003;54688;52.376;16.744;2024-01-15T01:05:24;24;23;
67892;PMS7003;54688;52.376;16.744;2024-01-15T01:08:26;31;25;
67892;PMS7003;54688;52.376;16.744;2024-01-15T01:11:28;25;22;
67892;PMS7003;54688;52.376;16.744;2024-01-15T01:14:31;27;24;
67892;PMS7003;54688;52.376;16.744;2024-01-15T01:17:34;23;22;
67892;PMS7003;54688;52.376;16.744;2024-01-15T01:20:36;26;23;
67892;PMS7003;54688;52.376;16.744;2024-01-15T01:23:39;29;24;
67892;PMS7003;54688;52.376;16.744;2024-01-15T01:26:41;26;26;
67892;PMS7003;54688;52.376;16.744;2024-01-15T01:29:43;32;27;
67892;PMS7003;54688;52.376;16.744;2024-01-15T01:32:46;22;20;
67892;PMS7003;54688;52.376;16.744;2024-01-15T01:35:48;22;21;
67892;PMS7003;54688;52.376;16.744;2024-01-15T01:38:50;28;23;
67892;PMS7003;54688;52.376;16.744;2024-01-15T01:41:53;21;16;
67892;PMS7003;54688;52.376;16.744;2024-01-15T01:44:55;30;25;
67892;PMS7003;54688;52.376;16.744;2024-01-15T01:47:57;26;25;
67892;PMS7003;54688;52.376;16.744;2024-01-15T01:51:02;37;28;
67892;PMS7003;54688;52.376;16.744;2024-01-15T01:54:05;25;25;
67892;PMS7003;54688;52.376;16.744;2024-01-15T01:57:08;25;20;
67892;PMS7003;54688;52.376;16.744;2024-01-15T02:00:12;27;22;
67892;PMS7003;54688;52.376;16.744;2024-01-15T02:03:15;29;24;
67892;PMS7003;54688;52.376;16.744;2024-01-15T02:06:18;25;24;
67892;PMS7003;54688;52.376;16.744;2024-01-15T02:09:21;26;22;
67892;PMS7003;54688;52.376;16.744;2024-01-15T02:12:24;25;19;
67892;PMS7003;54688;52.376;16.744;2024-01-15T02:15:26;28;26;
67892;PMS7003;54688;52.376;16.744;2024-01-15T02:18:29;23;19;
67892;PMS7003;54688;52.376;16.744;2024-01-15T02:21:32;30;24;
67892;PMS7003;54688;52.376;16.744;2024-01-15T02:24:35;22;21;
67892;PMS7003;54688;52.376;16.744;2024-01-15T02:27:37;22;20;
67892;PMS7003;54688;52.376;16.744;2024-01-15T02:30:42;28;22;
67892;PMS7003;54688;52.376;16.744;2024-01-15T02:33:44;22;21;
67892;PMS7003;54688;52.376;16.744;2024-01-15T02:36:46;28;23;
67892;PMS7003;54688;52.376;16.744;2024-01-15T02:39:48;24;20;
67892;PMS7003;54688;52.376;16.744;2024-01-15T02:42:50;26;23;
67892;PMS7003;54688;52.376;16.744;2024-01-15T02:45:53;35;26;
67892;PMS7003;54688;52.376;16.744;2024-01-15T02:48:55;31;24;
67892;PMS7003;54688;52.376;16.744;2024-01-15T02:51:58;29;28;
67892;PMS7003;54688;52.376;16.744;2024-01-15T02:55:00;23;20;
67892;PMS7003;54688;52.376;16.744;2024-01-15T02:58:03;25;22;
67892;PMS7003;54688;52.376;16.744;2024-01-15T03:01:06;22;22;
67892;PMS7003;54688;52.376;16.744;2024-01-15T03:04:08;28;26;
67892;PMS7003;54688;52.376;16.744;2024-01-15T03:07:10;24;23;
67892;PMS7003;54688;52.376;16.744;2024-01-15T03:10:13;30;27;
67892;PMS7003;54688;52.376;16.744;2024-01-15T03:13:15;29;27;
67892;PMS7003;54688;52.376;16.744;2024-01-15T03:16:18;25;24;
67892;PMS7003;54688;52.376;16.744;2024-01-15T03:19:21;21;20;
67892;PMS7003;54688;52.376;16.744;2024-01-15T03:22:23;26;25;
67892;PMS7003;54688;52.376;16.744;2024-01-15T03:25:25;25;23;
67892;PMS7003;54688;52.376;16.744;2024-01-15T03:28:27;27;23;
67892;PMS7003;54688;52.376;16.744;2024-01-15T03:31:29;25;18;
67892;PMS7003;54688;52.376;16.744;2024-01-15T03:34:31;28;24;
67892;PMS7003;54688;52.376;16.744;2024-01-15T03:37:33;31;24;
67892;PMS7003;54688;52.376;16.744;2024-01-15T03:40:35;26;18;
67892;PMS7003;54688;52.376;16.744;2024-01-15T03:43:37;19;18;
67892;PMS7003;54688;52.376;16.744;2024-01-15T03:46:40;27;20;
67892;PMS7003;54688;52.376;16.744;2024-01-15T03:49:42;21;18;
67892;PMS7003;54688;52.376;16.744;2024-01-15T03:52:45;19;19;
67892;PMS7003;54688;52.376;16.744;2024-01-15T03:55:47;23;20;
67892;PMS7003;54688;52.376;16.744;2024-01-15T03:58:49;25;21;
67892;PMS7003;54688;52.376;16.744;2024-01-15T04:01:51;15;14;
67892;PMS7003;54688;52.376;16.744;2024-01-15T04:04:55;23;19;
67892;PMS7003;54688;52.376;16.744;2024-01-15T04:07:57;25;17;
67892;PMS7003;54688;52.376;16.744;2024-01-15T04:10:59;23;18;
67892;PMS7003;54688;52.376;16.744;2024-01-15T04:14:02;18;17;
67892;PMS7003;54688;52.376;16.744;2024-01-15T04:17:04;19;16;
67892;PMS7003;54688;52.376;16.744;2024-01-15T04:20:07;16;13;
67892;PMS7003;54688;52.376;16.744;2024-01-15T04:23:09;20;19;
67892;PMS7003;54688;52.376;16.744;2024-01-15T04:26:11;16;16;
67892;PMS7003;54688;52.376;16.744;2024-01-15T04:29:13;17;15;
67892;PMS7003;54688;52.376;16.744;2024-01-15T04:32:15;19;15;
67892;PMS7003;54688;52.376;16.744;2024-01-15T04:35:18;17;15;
67892;PMS7003;54688;52.376;16.744;2024-01-15T04:38:20;17;13;
67892;PMS7003;54688;52.376;16.744;2024-01-15T04:41:22;15;15;
67892;PMS7003;54688;52.376;16.744;2024-01-15T04:44:24;24;18;
67892;PMS7003;54688;52.376;16.744;2024-01-15T04:47:27;15;15;
67892;PMS7003;54688;52.376;16.744;2024-01-15T04:50:29;17;15;
67892;PMS7003;54688;52.376;16.744;2024-01-15T04:53:32;16;14;
67892;PMS7003;54688;52.376;16.744;2024-01-15T04:56:34;17;15;
67892;PMS7003;54688;52.376;16.744;2024-01-15T04:59:36;16;13;
67892;PMS7003;54688;52.376;16.744;2024-01-15T05:02:38;16;15;
67892;PMS7003;54688;52.376;16.744;2024-01-15T05:05:42;16;16;
67892;PMS7003;54688;52.376;16.744;2024-01-15T05:08:44;17;16;
67892;PMS7003;54688;52.376;16.744;2024-01-15T05:11:47;15;15;
67892;PMS7003;54688;52.376;16.744;2024-01-15T05:14:50;22;15;
67892;PMS7003;54688;52.376;16.744;2024-01-15T05:17:52;11;9;
67892;PMS7003;54688;52.376;16.744;2024-01-15T05:20:54;15;13;
67892;PMS7003;54688;52.376;16.744;2024-01-15T05:23:57;16;14;
67892;PMS7003;54688;52.376;16.744;2024-01-15T05:26:59;17;14;
67892;PMS7003;54688;52.376;16.744;2024-01-15T05:30:02;16;14;
67892;PMS7003;54688;52.376;16.744;2024-01-15T05:33:05;17;15;
67892;PMS7003;54688;52.376;16.744;2024-01-15T05:36:07;16;14;
67892;PMS7003;54688;52.376;16.744;2024-01-15T05:39:10;15;15;
67892;PMS7003;54688;52.376;16.744;2024-01-15T05:42:12;17;15;
67892;PMS7003;54688;52.376;16.744;2024-01-15T05:45:15;17;17;
67892;PMS7003;54688;52.376;16.744;2024-01-15T05:48:18;16;15;
67892;PMS7003;54688;52.376;16.744;2024-01-15T05:51:20;13;13;
67892;PMS7003;54688;52.376;16.744;2024-01-15T05:54:22;15;12;
67892;PMS7003;54688;52.376;16.744;2024-01-15T05:57:25;16;12;
67892;PMS7003;54688;52.376;16.744;2024-01-15T06:00:27;14;12;
67892;PMS7003;54688;52.376;16.744;2024-01-15T06:03:30;16;13;
67892;PMS7003;54688;52.376;16.744;2024-01-15T06:06:33;14;13;
67892;PMS7003;54688;52.376;16.744;2024-01-15T06:09:35;23;16;
67892;PMS7003;54688;52.376;16.744;2024-01-15T06:12:37;17;16;
67892;PMS7003;54688;52.376;16.744;2024-01-15T06:15:40;17;13;
67892;PMS7003;54688;52.376;16.744;2024-01-15T06:18:41;16;12;
67892;PMS7003;54688;52.376;16.744;2024-01-15T06:21:44;14;14;
67892;PMS7003;54688;52.376;16.744;2024-01-15T06:24:46;16;15;
67892;PMS7003;54688;52.376;16.744;2024-01-15T06:27:48;11;11;
67892;PMS7003;54688;52.376;16.744;2024-01-15T06:30:51;14;12;
67892;PMS7003;54688;52.376;16.744;2024-01-15T06:33:55;14;13;
67892;PMS7003;54688;52.376;16.744;2024-01-15T06:36:57;13;13;
67892;PMS7003;54688;52.376;16.744;2024-01-15T06:39:59;14;13;
67892;PMS7003;54688;52.376;16.744;2024-01-15T06:43:02;21;18;
67892;PMS7003;54688;52.376;16.744;2024-01-15T06:46:04;18;16;
67892;PMS7003;54688;52.376;16.744;2024-01-15T06:49:06;15;10;
67892;PMS7003;54688;52.376;16.744;2024-01-15T06:52:09;13;13;
67892;PMS7003;54688;52.376;16.744;2024-01-15T06:55:11;14;13;
67892;PMS7003;54688;52.376;16.744;2024-01-15T06:58:13;16;13;
67892;PMS7003;54688;52.376;16.744;2024-01-15T07:01:16;16;14;
67892;PMS7003;54688;52.376;16.744;2024-01-15T07:04:18;16;15;
67892;PMS7003;54688;52.376;16.744;2024-01-15T07:07:20;15;12;
67892;PMS7003;54688;52.376;16.744;2024-01-15T07:10:22;18;15;
67892;PMS7003;54688;52.376;16.744;2024-01-15T07:13:24;12;11;
67892;PMS7003;54688;52.376;16.744;2024-01-15T07:16:27;16;11;
67892;PMS7003;54688;52.376;16.744;2024-01-15T07:19:30;20;14;
67892;PMS7003;54688;52.376;16.744;2024-01-15T07:22:32;13;13;
67892;PMS7003;54688;52.376;16.744;2024-01-15T07:25:35;16;13;
67892;PMS7003;54688;52.376;16.744;2024-01-15T07:28:37;14;13;
67892;PMS7003;54688;52.376;16.744;2024-01-15T07:31:40;24;14;
67892;PMS7003;54688;52.376;16.744;2024-01-15T07:34:42;13;11;
67892;PMS7003;54688;52.376;16.744;2024-01-15T07:37:45;14;12;
67892;PMS7003;54688;52.376;16.744;2024-01-15T07:40:48;14;13;
67892;PMS7003;54688;52.376;16.744;2024-01-15T07:43:50;16;14;
67892;PMS7003;54688;52.376;16.744;2024-01-15T07:46:52;18;15;
67892;PMS7003;54688;52.376;16.744;2024-01-15T07:49:54;19;15;
67892;PMS7003;54688;52.376;16.744;2024-01-15T07:52:56;19;16;
67892;PMS7003;54688;52.376;16.744;2024-01-15T07:55:59;17;14;
67892;PMS7003;54688;52.376;16.744;2024-01-15T07:59:01;19;16;
67892;PMS7003;54688;52.376;16.744;2024-01-15T08:02:03;20;18;
67892;PMS7003;54688;52.376;16.744;2024-01-15T08:05:06;14;13;
67892;PMS7003;54688;52.376;16.744;2024-01-15T08:08:08;14;11;
67892;PMS7003;54688;52.376;16.744;2024-01-15T08:11:10;18;15;
67892;PMS7003;54688;52.376;16.744;2024-01-15T08:14:12;18;13;
67892;PMS7003;54688;52.376;16.744;2024-01-15T08:17:14;16;13;
67892;PMS7003;54688;52.376;16.744;2024-01-15T08:20:17;17;14;
67892;PMS7003;54688;52.376;16.744;2024-01-15T08:23:19;15;11;
67892;PMS7003;54688;52.376;16.744;2024-01-15T08:26:21;12;10;
67892;PMS7003;54688;52.376;16.744;2024-01-15T08:29:23;12;11;
67892;PMS7003;54688;52.376;16.744;2024-01-15T08:32:26;19;14;
67892;PMS7003;54688;52.376;16.744;2024-01-15T08:35:28;28;22;
67892;PMS7003;54688;52.376;16.744;2024-01-15T08:38:30;31;27;
67892;PMS7003;54688;52.376;16.744;2024-01-15T08:41:33;16;14;
67892;PMS7003;54688;52.376;16.744;2024-01-15T08:44:35;14;12;
67892;PMS7003;54688;52.376;16.744;2024-01-15T08:47:38;17;15;
67892;PMS7003;54688;52.376;16.744;2024-01-15T08:50:40;16;13;
67892;PMS7003;54688;52.376;16.744;2024-01-15T08:53:43;19;15;
67892;PMS7003;54688;52.376;16.744;2024-01-15T08:56:45;16;12;
67892;PMS7003;54688;52.376;16.744;2024-01-15T08:59:48;28;24;
67892;PMS7003;54688;52.376;16.744;2024-01-15T09:02:51;13;13;
67892;PMS7003;54688;52.376;16.744;2024-01-15T09:05:53;14;11;
67892;PMS7003;54688;52.376;16.744;2024-01-15T09:08:55;12;12;
67892;PMS7003;54688;52.376;16.744;2024-01-15T09:11:57;15;12;
67892;PMS7003;54688;52.376;16.744;2024-01-15T09:14:59;13;12;
67892;PMS7003;54688;52.376;16.744;2024-01-15T09:18:01;14;13;
67892;PMS7003;54688;52.376;16.744;2024-01-15T09:21:04;23;12;
67892;PMS7003;54688;52.376;16.744;2024-01-15T09:24:07;11;11;
67892;PMS7003;54688;52.376;16.744;2024-01-15T09:27:09;13;11;
67892;PMS7003;54688;52.376;16.744;2024-01-15T09:30:12;15;10;
67892;PMS7003;54688;52.376;16.744;2024-01-15T09:33:15;8;8;
67892;PMS7003;54688;52.376;16.744;2024-01-15T09:36:17;14;9;
67892;PMS7003;54688;52.376;16.744;2024-01-15T09:39:20;12;7;
67892;PMS7003;54688;52.376;16.744;2024-01-15T09:42:24;8;8;
67892;PMS7003;54688;52.376;16.744;2024-01-15T09:45:27;14;11;
67892;PMS7003;54688;52.376;16.744;2024-01-15T09:48:29;8;7;
67892;PMS7003;54688;52.376;16.744;2024-01-15T09:51:32;13;12;
67892;PMS7003;54688;52.376;16.744;2024-01-15T09:54:34;9;9;
67892;PMS7003;54688;52.376;16.744;2024-01-15T09:57:37;12;11;
67892;PMS7003;54688;52.376;16.744;2024-01-15T10:00:40;11;10;
67892;PMS7003;54688;52.376;16.744;2024-01-15T10:03:44;15;11;
67892;PMS7003;54688;52.376;16.744;2024-01-15T10:06:47;11;11;
67892;PMS7003;54688;52.376;16.744;2024-01-15T10:09:51;14;8;
67892;PMS7003;54688;52.376;16.744;2024-01-15T10:12:53;13;13;
67892;PMS7003;54688;52.376;16.744;2024-01-15T10:15:57;14;13;
67892;PMS7003;54688;52.376;16.744;2024-01-15T10:18:59;15;15;
67892;PMS7003;54688;52.376;16.744;2024-01-15T10:22:01;11;10;
67892;PMS7003;54688;52.376;16.744;2024-01-15T10:25:05;15;13;
67892;PMS7003;54688;52.376;16.744;2024-01-15T10:28:07;12;10;
67892;PMS7003;54688;52.376;16.744;2024-01-15T10:31:10;13;10;
67892;PMS7003;54688;52.376;16.744;2024-01-15T10:34:13;11;9;
67892;PMS7003;54688;52.376;16.744;2024-01-15T10:37:16;13;9;
67892;PMS7003;54688;52.376;16.744;2024-01-15T10:40:18;13;9;
67892;PMS7003;54688;52.376;16.744;2024-01-15T10:43:22;14;11;
67892;PMS7003;54688;52.376;16.744;2024-01-15T10:46:25;13;13;
67892;PMS7003;54688;52.376;16.744;2024-01-15T10:49:28;8;8;
67892;PMS7003;54688;52.376;16.744;2024-01-15T10:52:30;7;6;
67892;PMS7003;54688;52.376;16.744;2024-01-15T10:55:33;14;10;
67892;PMS7003;54688;52.376;16.744;2024-01-15T10:58:39;12;10;
67892;PMS7003;54688;52.376;16.744;2024-01-15T11:01:42;14;11;
67892;PMS7003;54688;52.376;16.744;2024-01-15T11:04:45;12;11;
67892;PMS7003;54688;52.376;16.744;2024-01-15T11:07:48;14;12;
67892;PMS7003;54688;52.376;16.744;2024-01-15T11:10:51;11;9;
67892;PMS7003;54688;52.376;16.744;2024-01-15T11:13:53;12;11;
67892;PMS7003;54688;52.376;16.744;2024-01-15T11:16:57;13;11;
67892;PMS7003;54688;52.376;16.744;2024-01-15T11:19:59;8;6;
67892;PMS7003;54688;52.376;16.744;2024-01-15T11:23:01;12;8;
67892;PMS7003;54688;52.376;16.744;2024-01-15T11:26:27;8;7;
67892;PMS7003;54688;52.376;16.744;2024-01-15T11:29:30;8;6;
67892;PMS7003;54688;52.376;16.744;2024-01-15T11:32:33;6;6;
67892;PMS7003;54688;52.376;16.744;2024-01-15T11:35:48;12;8;
67892;PMS7003;54688;52.376;16.744;2024-01-15T11:38:50;10;8;
67892;PMS7003;54688;52.376;16.744;2024-01-15T11:41:54;11;11;
67892;PMS7003;54688;52.376;16.744;2024-01-15T11:44:57;14;10;
67892;PMS7003;54688;52.376;16.744;2024-01-15T11:48:11;10;9;
67892;PMS7003;54688;52.376;16.744;2024-01-15T11:51:16;18;11;
67892;PMS7003;54688;52.376;16.744;2024-01-15T11:54:22;10;10;
67892;PMS7003;54688;52.376;16.744;2024-01-15T11:57:33;14;11;
67892;PMS7003;54688;52.376;16.744;2024-01-15T12:00:39;9;8;
67892;PMS7003;54688;52.376;16.744;2024-01-15T12:03:42;9;9;
67892;PMS7003;54688;52.376;16.744;2024-01-15T12:06:45;8;8;
67892;PMS7003;54688;52.376;16.744;2024-01-15T12:09:47;14;12;
67892;PMS7003;54688;52.376;16.744;2024-01-15T12:12:57;9;9;
67892;PMS7003;54688;52.376;16.744;2024-01-15T12:16:01;12;8;
67892;PMS7003;54688;52.376;16.744;2024-01-15T12:19:04;14;8;
67892;PMS7003;54688;52.376;16.744;2024-01-15T12:22:06;9;9;
67892;PMS7003;54688;52.376;16.744;2024-01-15T12:25:08;9;6;
67892;PMS7003;54688;52.376;16.744;2024-01-15T12:28:10;6;5;
67892;PMS7003;54688;52.376;16.744;2024-01-15T12:31:13;8;7;
67892;PMS7003;54688;52.376;16.744;2024-01-15T12:34:17;7;6;
67892;PMS7003;54688;52.376;16.744;2024-01-15T12:37:19;6;6;
67892;PMS7003;54688;52.376;16.744;2024-01-15T12:40:22;8;8;
67892;PMS7003;54688;52.376;16.744;2024-01-15T12:43:24;7;6;
67892;PMS7003;54688;52.376;16.744;2024-01-15T12:46:26;5;5;
67892;PMS7003;54688;52.376;16.744;2024-01-15T12:49:28;10;8;
67892;PMS7003;54688;52.376;16.744;2024-01-15T12:52:30;9;6;
67892;PMS7003;54688;52.376;16.744;2024-01-15T12:55:32;10;6;
67892;PMS7003;54688;52.376;16.744;2024-01-15T12:58:35;6;6;
67892;PMS7003;54688;52.376;16.744;2024-01-15T13:01:37;9;8;
67892;PMS7003;54688;52.376;16.744;2024-01-15T13:04:39;5;5;
67892;PMS7003;54688;52.376;16.744;2024-01-15T13:07:42;10;9;
67892;PMS7003;54688;52.376;16.744;2024-01-15T13:10:44;10;6;
67892;PMS7003;54688;52.376;16.744;2024-01-15T13:13:46;6;5;
67892;PMS7003;54688;52.376;16.744;2024-01-15T13:16:48;6;6;
67892;PMS7003;54688;52.376;16.744;2024-01-15T13:19:50;6;6;
67892;PMS7003;54688;52.376;16.744;2024-01-15T13:22:53;10;8;
67892;PMS7003;54688;52.376;16.744;2024-01-15T13:25:56;9;8;
67892;PMS7003;54688;52.376;16.744;2024-01-15T13:28:59;8;8;
67892;PMS7003;54688;52.376;16.744;2024-01-15T13:32:03;15;11;
67892;PMS7003;54688;52.376;16.744;2024-01-15T13:35:06;6;6;
67892;PMS7003;54688;52.376;16.744;2024-01-15T13:38:09;6;6;
67892;PMS7003;54688;52.376;16.744;2024-01-15T13:41:11;7;7;
67892;PMS7003;54688;52.376;16.744;2024-01-15T13:44:13;8;8;
67892;PMS7003;54688;52.376;16.744;2024-01-15T13:47:15;5;5;
67892;PMS7003;54688;52.376;16.744;2024-01-15T13:50:17;6;5;
67892;PMS7003;54688;52.376;16.744;2024-01-15T13:53:20;9;6;
67892;PMS7003;54688;52.376;16.744;2024-01-15T13:56:22;7;4;
67892;PMS7003;54688;52.376;16.744;2024-01-15T13:59:25;8;7;
67892;PMS7003;54688;52.376;16.744;2024-01-15T14:02:27;8;5;
67892;PMS7003;54688;52.376;16.744;2024-01-15T14:05:29;9;6;
67892;PMS7003;54688;52.376;16.744;2024-01-15T14:08:31;7;6;
67892;PMS7003;54688;52.376;16.744;2024-01-15T14:11:34;7;7;
67892;PMS7003;54688;52.376;16.744;2024-01-15T14:14:36;6;6;
67892;PMS7003;54688;52.376;16.744;2024-01-15T14:17:38;6;5;
67892;PMS7003;54688;52.376;16.744;2024-01-15T14:20:41;9;8;
67892;PMS7003;54688;52.376;16.744;2024-01-15T14:23:44;5;5;
67892;PMS7003;54688;52.376;16.744;2024-01-15T14:26:46;7;6;
67892;PMS7003;54688;52.376;16.744;2024-01-15T14:29:48;5;5;
67892;PMS7003;54688;52.376;16.744;2024-01-15T14:32:50;4;4;
67892;PMS7003;54688;52.376;16.744;2024-01-15T14:35:53;6;6;
67892;PMS7003;54688;52.376;16.744;2024-01-15T14:38:55;6;5;
67892;PMS7003;54688;52.376;16.744;2024-01-15T14:41:57;8;6;
67892;PMS7003;54688;52.376;16.744;2024-01-15T14:44:59;4;4;
67892;PMS7003;54688;52.376;16.744;2024-01-15T14:48:01;2;1;
67892;PMS7003;54688;52.376;16.744;2024-01-15T14:51:04;0;0;
67892;PMS7003;54688;52.376;16.744;2024-01-15T14:54:06;1;1;
67892;PMS7003;54688;52.376;16.744;2024-01-15T14:57:08;1;1;
67892;PMS7003;54688;52.376;16.744;2024-01-15T15:00:11;1;1;
67892;PMS7003;54688;52.376;16.744;2024-01-15T15:03:13;2;1;
67892;PMS7003;54688;52.376;16.744;2024-01-15T15:06:15;3;2;
67892;PMS7003;54688;52.376;16.744;2024-01-15T15:09:17;1;1;
67892;PMS7003;54688;52.376;16.744;2024-01-15T15:12:19;10;4;
67892;PMS7003;54688;52.376;16.744;2024-01-15T15:15:22;7;7;
67892;PMS7003;54688;52.376;16.744;2024-01-15T15:18:23;6;3;
67892;PMS7003;54688;52.376;16.744;2024-01-15T15:21:25;3;3;
67892;PMS7003;54688;52.376;16.744;2024-01-15T15:24:28;5;5;
67892;PMS7003;54688;52.376;16.744;2024-01-15T15:27:30;2;2;
67892;PMS7003;54688;52.376;16.744;2024-01-15T15:30:32;3;2;
67892;PMS7003;54688;52.376;16.744;2024-01-15T15:33:34;4;3;
67892;PMS7003;54688;52.376;16.744;2024-01-15T15:36:37;2;2;
67892;PMS7003;54688;52.376;16.744;2024-01-15T15:39:39;4;3;
67892;PMS7003;54688;52.376;16.744;2024-01-15T15:42:41;5;3;
67892;PMS7003;54688;52.376;16.744;2024-01-15T15:45:43;4;2;
67892;PMS7003;54688;52.376;16.744;2024-01-15T15:48:45;5;4;
67892;PMS7003;54688;52.376;16.744;2024-01-15T15:51:48;3;3;
67892;PMS7003;54688;52.376;16.744;2024-01-15T15:54:51;3;3;
67892;PMS7003;54688;52.376;16.744;2024-01-15T15:57:54;3;3;
67892;PMS7003;54688;52.376;16.744;2024-01-15T16:00:56;3;3;
67892;PMS7003;54688;52.376;16.744;2024-01-15T16:03:58;6;4;
67892;PMS7003;54688;52.376;16.744;2024-01-15T16:07:02;5;2;
67892;PMS7003;54688;52.376;16.744;2024-01-15T16:10:05;6;6;
67892;PMS7003;54688;52.376;16.744;2024-01-15T16:13:07;6;5;
67892;PMS7003;54688;52.376;16.744;2024-01-15T16:16:09;9;6;
67892;PMS7003;54688;52.376;16.744;2024-01-15T16:19:12;9;8;
67892;PMS7003;54688;52.376;16.744;2024-01-15T16:22:15;7;5;
67892;PMS7003;54688;52.376;16.744;2024-01-15T16:25:17;9;7;
67892;PMS7003;54688;52.376;16.744;2024-01-15T16:28:19;11;9;
67892;PMS7003;54688;52.376;16.744;2024-01-15T16:31:21;6;5;
67892;PMS7003;54688;52.376;16.744;2024-01-15T16:34:24;6;5;
67892;PMS7003;54688;52.376;16.744;2024-01-15T16:37:27;7;7;
67892;PMS7003;54688;52.376;16.744;2024-01-15T16:40:30;5;5;
67892;PMS7003;54688;52.376;16.744;2024-01-15T16:43:32;6;5;
67892;PMS7003;54688;52.376;16.744;2024-01-15T16:46:34;7;7;
67892;PMS7003;54688;52.376;16.744;2024-01-15T16:49:36;8;5;
67892;PMS7003;54688;52.376;16.744;2024-01-15T16:52:39;5;4;
67892;PMS7003;54688;52.376;16.744;2024-01-15T16:55:42;8;6;
67892;PMS7003;54688;52.376;16.744;2024-01-15T16:58:44;5;4;
67892;PMS7003;54688;52.376;16.744;2024-01-15T17:01:46;8;5;
67892;PMS7003;54688;52.376;16.744;2024-01-15T17:04:49;5;5;
67892;PMS7003;54688;52.376;16.744;2024-01-15T17:07:51;11;9;
67892;PMS7003;54688;52.376;16.744;2024-01-15T17:10:54;6;5;
67892;PMS7003;54688;52.376;16.744;2024-01-15T17:13:56;6;6;
67892;PMS7003;54688;52.376;16.744;2024-01-15T17:16:58;6;4;
67892;PMS7003;54688;52.376;16.744;2024-01-15T17:20:00;11;7;
67892;PMS7003;54688;52.376;16.744;2024-01-15T17:23:03;5;4;
67892;PMS7003;54688;52.376;16.744;2024-01-15T17:26:05;5;5;
67892;PMS7003;54688;52.376;16.744;2024-01-15T17:29:08;8;5;
67892;PMS7003;54688;52.376;16.744;2024-01-15T17:32:11;8;8;
67892;PMS7003;54688;52.376;16.744;2024-01-15T17:35:14;5;5;
67892;PMS7003;54688;52.376;16.744;2024-01-15T17:38:16;10;9;
67892;PMS7003;54688;52.376;16.744;2024-01-15T17:41:21;4;4;
67892;PMS7003;54688;52.376;16.744;2024-01-15T17:44:23;4;4;
67892;PMS7003;54688;52.376;16.744;2024-01-15T17:47:26;4;4;
67892;PMS7003;54688;52.376;16.744;2024-01-15T17:50:28;8;5;
67892;PMS7003;54688;52.376;16.744;2024-01-15T17:53:30;5;4;
67892;PMS7003;54688;52.376;16.744;2024-01-15T17:56:33;10;4;
67892;PMS7003;54688;52.376;16.744;2024-01-15T17:59:35;6;5;
67892;PMS7003;54688;52.376;16.744;2024-01-15T18:02:38;8;6;
67892;PMS7003;54688;52.376;16.744;2024-01-15T18:05:39;8;6;
67892;PMS7003;54688;52.376;16.744;2024-01-15T18:08:41;4;4;
67892;PMS7003;54688;52.376;16.744;2024-01-15T18:11:44;4;4;
67892;PMS7003;54688;52.376;16.744;2024-01-15T18:14:47;6;5;
67892;PMS7003;54688;52.376;16.744;2024-01-15T18:17:49;5;2;
67892;PMS7003;54688;52.376;16.744;2024-01-15T18:20:52;4;4;
67892;PMS7003;54688;52.376;16.744;2024-01-15T18:23:54;6;4;
67892;PMS7003;54688;52.376;16.744;2024-01-15T18:26:56;4;4;
67892;PMS7003;54688;52.376;16.744;2024-01-15T18:29:58;6;4;
67892;PMS7003;54688;52.376;16.744;2024-01-15T18:33:00;4;3;
67892;PMS7003;54688;52.376;16.744;2024-01-15T18:36:03;9;4;
67892;PMS7003;54688;52.376;16.744;2024-01-15T18:39:06;6;3;
67892;PMS7003;54688;52.376;16.744;2024-01-15T18:42:08;10;7;
67892;PMS7003;54688;52.376;16.744;2024-01-15T18:45:10;8;6;
67892;PMS7003;54688;52.376;16.744;2024-01-15T18:48:13;5;5;
67892;PMS7003;54688;52.376;16.744;2024-01-15T18:51:19;4;4;
67892;PMS7003;54688;52.376;16.744;2024-01-15T18:54:22;11;5;
67892;PMS7003;54688;52.376;16.744;2024-01-15T18:57:25;5;3;
67892;PMS7003;54688;52.376;16.744;2024-01-15T19:00:27;7;6;
67892;PMS7003;54688;52.376;16.744;2024-01-15T19:03:30;5;5;
67892;PMS7003;54688;52.376;16.744;2024-01-15T19:06:32;7;4;
67892;PMS7003;54688;52.376;16.744;2024-01-15T19:09:37;3;2;
67892;PMS7003;54688;52.376;16.744;2024-01-15T19:12:39;4;4;
67892;PMS7003;54688;52.376;16.744;2024-01-15T19:15:41;2;2;
67892;PMS7003;54688;52.376;16.744;2024-01-15T19:18:44;3;2;
67892;PMS7003;54688;52.376;16.744;2024-01-15T19:21:46;2;2;
67892;PMS7003;54688;52.376;16.744;2024-01-15T19:24:48;4;3;
67892;PMS7003;54688;52.376;16.744;2024-01-15T19:27:50;4;4;
67892;PMS7003;54688;52.376;16.744;2024-01-15T19:30:52;5;5;
67892;PMS7003;54688;52.376;16.744;2024-01-15T19:33:54;1;1;
67892;PMS7003;54688;52.376;16.744;2024-01-15T19:36:56;4;2;
67892;PMS7003;54688;52.376;16.744;2024-01-15T19:39:58;3;3;
67892;PMS7003;54688;52.376;16.744;2024-01-15T19:43:01;4;3;
67892;PMS7003;54688;52.376;16.744;2024-01-15T19:46:04;3;3;
67892;PMS7003;54688;52.376;16.744;2024-01-15T19:49:06;8;6;
67892;PMS7003;54688;52.376;16.744;2024-01-15T19:52:09;5;3;
67892;PMS7003;54688;52.376;16.744;2024-01-15T19:55:11;3;3;
67892;PMS7003;54688;52.376;16.744;2024-01-15T19:58:13;4;2;
67892;PMS7003;54688;52.376;16.744;2024-01-15T20:01:15;4;4;
67892;PMS7003;54688;52.376;16.744;2024-01-15T20:04:18;11;6;
67892;PMS7003;54688;52.376;16.744;2024-01-15T20:07:20;6;4;
67892;PMS7003;54688;52.376;16.744;2024-01-15T20:10:22;7;6;